Terminal Aerodrome Forecast
Issued by NWS

Home | Current Version | Previous Version | Text Only | Print | Product List | Glossary On
Versions: 1 2 3 4 5 6 7 8 9 10 11 12 13 14 15 16 17 18 19 20 21 22
000
FTUS42 KGSP 281120
TAFAND
TAF
KAND 281120Z 2812/0112 06012G18KT P6SM OVC050
     FM010000 06010KT P6SM SCT030 OVC040
     FM010200 06008KT P6SM BKN024
     FM010600 06009KT P6SM OVC010
     FM011000 06006KT P6SM -RA OVC017=

USA.gov is the U.S. government's official web portal to all federal, state and local government web resources and services.